CMB864 Details

Departure: Bahrain International Airport (OBBI)
Arrival: Ramstein Air Force Base (ETAR) at N/A
Route: RAMSI ITNAS UL602 TASMI L602 ALPET UM860 SRT G8 ULSAB UT334 INB L746 ODERO T86 MATEL WRN L744 ELRUR L602 KOMAN L852 DIRER REDBU KRH
Notes: USTRANSCOM CONTRACT FLIGHT


Current Weather Information
OBBI 191600Z 36008KT CAVOK 34/28 Q1003 NOSIG
ETAR 191556Z AUTO 27011KT 9999 FEW060 24/11 A3007 RMK AO2 SLP179 T02400113 $